ANA82 RJCC-RJTT
Flight info
| Callsign | ANA82 |
|---|---|
| Flight time | N/A |
| Altitude | 38000 |
| Route | TOBBY Y10 GODIN |
| Aircraft | B77W/H-SDE1E2E3FGHIJ2J3J4J5M1RWXY/LB1D1 |
Departure
| Time | 2026-05-08 11:42 |
|---|---|
| Airport | New Chitose Airport (RJCC) |
Arrival
| Time | N/A |
|---|---|
| Airport | Tokyo Haneda International Airport (RJTT) |
| Time | Latitude | Longitude | Altitude | Speed | Heading |
|---|---|---|---|---|---|
| 2026-05-08 11:16 | 42.78951 | 141.68178 | 96 ft | 0 kts | 226° |
| 2026-05-08 11:18 | 42.78950 | 141.68176 | 96 ft | 0 kts | 226° |
| 2026-05-08 11:32 | 42.78955 | 141.68183 | 86 ft | 4 kts | 226° |
| 2026-05-08 11:32 | 42.78973 | 141.68210 | 88 ft | 4 kts | 226° |
| 2026-05-08 11:33 | 42.78989 | 141.68232 | 88 ft | 4 kts | 213° |
| 2026-05-08 11:33 | 42.79012 | 141.68242 | 90 ft | 4 kts | 167° |
| 2026-05-08 11:33 | 42.79035 | 141.68227 | 88 ft | 4 kts | 139° |
| 2026-05-08 11:33 | 42.79047 | 141.68211 | 88 ft | 0 kts | 130° |
| 2026-05-08 11:38 | 42.79047 | 141.68212 | 101 ft | 1 kts | 130° |
| 2026-05-08 11:38 | 42.79032 | 141.68235 | 95 ft | 4 kts | 132° |
| 2026-05-08 11:39 | 42.79013 | 141.68261 | 91 ft | 4 kts | 135° |
| 2026-05-08 11:39 | 42.78993 | 141.68285 | 93 ft | 4 kts | 141° |
| 2026-05-08 11:39 | 42.78971 | 141.68307 | 91 ft | 4 kts | 143° |
| 2026-05-08 11:39 | 42.78942 | 141.68337 | 91 ft | 7 kts | 143° |
| 2026-05-08 11:40 | 42.78902 | 141.68389 | 95 ft | 9 kts | 125° |
| 2026-05-08 11:40 | 42.78895 | 141.68472 | 93 ft | 10 kts | 73° |
| 2026-05-08 11:40 | 42.78921 | 141.68564 | 70 ft | 11 kts | 68° |
| 2026-05-08 11:40 | 42.78937 | 141.68662 | 70 ft | 11 kts | 98° |
| 2026-05-08 11:41 | 42.78894 | 141.68743 | 84 ft | 11 kts | 139° |
| 2026-05-08 11:41 | 42.78832 | 141.68799 | 88 ft | 11 kts | 153° |
| 2026-05-08 11:41 | 42.78761 | 141.68828 | 87 ft | 11 kts | 171° |
| 2026-05-08 11:41 | 42.78652 | 141.68848 | 88 ft | 27 kts | 172° |
| 2026-05-08 11:42 | 42.78214 | 141.68924 | 87 ft | 113 kts | 172° |
| 2026-05-08 11:42 | 42.77159 | 141.69103 | 373 ft | 175 kts | 174° |
| 2026-05-08 11:42 | 42.75917 | 141.69280 | 1520 ft | 171 kts | 171° |
| 2026-05-08 11:42 | 42.74766 | 141.69508 | 2764 ft | 167 kts | 169° |
| 2026-05-08 11:43 | 42.73597 | 141.69755 | 3564 ft | 174 kts | 171° |
| 2026-05-08 11:43 | 42.72300 | 141.70028 | 3947 ft | 205 kts | 171° |
| 2026-05-08 11:43 | 42.70762 | 141.70349 | 4258 ft | 239 kts | 172° |
| 2026-05-08 11:43 | 42.69082 | 141.70697 | 5134 ft | 249 kts | 173° |
| 2026-05-08 11:44 | 42.67347 | 141.71055 | 6146 ft | 256 kts | 174° |
| 2026-05-08 11:44 | 42.65570 | 141.71395 | 7180 ft | 259 kts | 177° |
| 2026-05-08 11:44 | 42.63794 | 141.71550 | 8311 ft | 260 kts | 181° |
| 2026-05-08 11:44 | 42.61969 | 141.71642 | 9483 ft | 264 kts | 182° |
| 2026-05-08 11:45 | 42.60155 | 141.71413 | 10305 ft | 264 kts | 200° |
| 2026-05-08 11:45 | 42.58402 | 141.70420 | 10776 ft | 287 kts | 208° |
| 2026-05-08 11:45 | 42.56482 | 141.69326 | 10980 ft | 315 kts | 196° |
| 2026-05-08 11:45 | 42.54212 | 141.68848 | 11346 ft | 341 kts | 190° |
| 2026-05-08 11:46 | 42.51800 | 141.68694 | 12281 ft | 349 kts | 182° |
| 2026-05-08 11:46 | 42.49344 | 141.68937 | 13279 ft | 358 kts | 179° |
| 2026-05-08 11:46 | 42.46885 | 141.69278 | 14232 ft | 362 kts | 179° |
| 2026-05-08 11:46 | 42.44374 | 141.69644 | 15245 ft | 365 kts | 179° |
| 2026-05-08 11:47 | 42.41838 | 141.70003 | 16257 ft | 369 kts | 179° |
| 2026-05-08 11:47 | 42.39266 | 141.70349 | 17236 ft | 373 kts | 179° |
| 2026-05-08 11:47 | 42.36665 | 141.70685 | 18194 ft | 377 kts | 179° |
| 2026-05-08 11:47 | 42.34054 | 141.71011 | 19141 ft | 377 kts | 179° |
| 2026-05-08 11:48 | 42.31473 | 141.71331 | 20359 ft | 369 kts | 179° |
| 2026-05-08 11:48 | 42.28927 | 141.71639 | 21455 ft | 366 kts | 179° |
| 2026-05-08 11:48 | 42.26386 | 141.71939 | 22343 ft | 368 kts | 179° |
| 2026-05-08 11:48 | 42.23820 | 141.72240 | 23141 ft | 372 kts | 178° |
| 2026-05-08 11:49 | 42.21237 | 141.72544 | 23816 ft | 374 kts | 179° |
| 2026-05-08 11:49 | 42.18661 | 141.72847 | 24434 ft | 378 kts | 179° |
| 2026-05-08 11:49 | 42.16018 | 141.73157 | 24857 ft | 386 kts | 179° |
| 2026-05-08 11:49 | 42.13320 | 141.73473 | 25344 ft | 392 kts | 180° |
| 2026-05-08 11:50 | 42.10593 | 141.73795 | 25973 ft | 394 kts | 180° |
| 2026-05-08 11:50 | 42.07851 | 141.74120 | 26632 ft | 396 kts | 181° |
| 2026-05-08 11:50 | 42.05100 | 141.74446 | 27244 ft | 399 kts | 181° |
| 2026-05-08 11:50 | 42.02321 | 141.74773 | 27813 ft | 402 kts | 181° |
| 2026-05-08 11:51 | 41.99563 | 141.75097 | 28317 ft | 406 kts | 182° |
| 2026-05-08 11:51 | 41.96740 | 141.75429 | 28798 ft | 409 kts | 182° |
| 2026-05-08 11:51 | 41.93893 | 141.75761 | 29144 ft | 413 kts | 183° |
| 2026-05-08 11:51 | 41.91010 | 141.76094 | 29556 ft | 416 kts | 183° |
| 2026-05-08 11:52 | 41.88122 | 141.76386 | 29946 ft | 418 kts | 184° |
| 2026-05-08 11:52 | 41.85216 | 141.76654 | 30319 ft | 419 kts | 184° |
| 2026-05-08 11:52 | 41.82318 | 141.76917 | 30708 ft | 419 kts | 184° |
| 2026-05-08 11:52 | 41.79407 | 141.77183 | 31182 ft | 417 kts | 184° |
| 2026-05-08 11:53 | 41.76566 | 141.77447 | 31675 ft | 414 kts | 184° |
| 2026-05-08 11:53 | 41.73700 | 141.77717 | 32110 ft | 412 kts | 185° |
| 2026-05-08 11:53 | 41.70835 | 141.77985 | 32506 ft | 412 kts | 185° |
| 2026-05-08 11:53 | 41.67978 | 141.78251 | 32932 ft | 411 kts | 185° |
| 2026-05-08 11:54 | 41.67019 | 141.78340 | 33090 ft | 410 kts | 185° |
| 2026-05-08 11:54 | 41.64136 | 141.78610 | 33565 ft | 408 kts | 185° |
| 2026-05-08 11:54 | 41.61309 | 141.78874 | 33933 ft | 407 kts | 185° |
| 2026-05-08 11:55 | 41.58518 | 141.79133 | 34187 ft | 409 kts | 185° |
| 2026-05-08 11:55 | 41.55667 | 141.79397 | 34401 ft | 410 kts | 185° |
| 2026-05-08 11:55 | 41.52846 | 141.79453 | 34732 ft | 401 kts | 191° |
| 2026-05-08 11:55 | 41.50086 | 141.79190 | 35082 ft | 396 kts | 193° |
| 2026-05-08 11:56 | 41.47347 | 141.78762 | 35276 ft | 396 kts | 195° |
| 2026-05-08 11:56 | 41.44635 | 141.78096 | 35406 ft | 396 kts | 199° |
| 2026-05-08 11:56 | 41.41951 | 141.77225 | 35594 ft | 397 kts | 200° |
| 2026-05-08 11:56 | 41.39270 | 141.76340 | 35875 ft | 397 kts | 200° |
| 2026-05-08 11:57 | 41.36590 | 141.75455 | 36142 ft | 397 kts | 200° |
| 2026-05-08 11:57 | 41.33943 | 141.74582 | 36374 ft | 398 kts | 200° |
| 2026-05-08 11:57 | 41.31253 | 141.73699 | 36584 ft | 398 kts | 200° |
| 2026-05-08 11:57 | 41.28579 | 141.72827 | 37075 ft | 394 kts | 200° |
| 2026-05-08 11:58 | 41.25917 | 141.71962 | 37415 ft | 394 kts | 201° |
| 2026-05-08 11:58 | 41.23246 | 141.71086 | 37600 ft | 397 kts | 200° |
| 2026-05-08 11:58 | 41.20548 | 141.70208 | 37627 ft | 401 kts | 200° |
| 2026-05-08 11:59 | 41.12389 | 141.67575 | 37667 ft | 400 kts | 200° |
| 2026-05-08 11:59 | 41.07056 | 141.65858 | 37637 ft | 396 kts | 200° |
| 2026-05-08 12:00 | 41.01733 | 141.64142 | 37679 ft | 393 kts | 200° |
| 2026-05-08 12:00 | 40.96388 | 141.62417 | 37686 ft | 398 kts | 200° |
| 2026-05-08 12:01 | 40.90972 | 141.60674 | 37686 ft | 403 kts | 200° |
| 2026-05-08 12:01 | 40.85550 | 141.58935 | 37676 ft | 405 kts | 200° |
| 2026-05-08 12:02 | 40.80105 | 141.57198 | 37665 ft | 395 kts | 200° |
| 2026-05-08 12:02 | 40.74775 | 141.55497 | 37690 ft | 396 kts | 200° |
| 2026-05-08 12:03 | 40.69377 | 141.53766 | 37683 ft | 401 kts | 200° |
| 2026-05-08 12:03 | 40.63978 | 141.52045 | 37682 ft | 403 kts | 200° |
| 2026-05-08 12:04 | 40.58524 | 141.50312 | 37657 ft | 402 kts | 200° |
| 2026-05-08 12:04 | 40.53161 | 141.48617 | 37662 ft | 391 kts | 200° |
| 2026-05-08 12:05 | 40.47882 | 141.46942 | 37680 ft | 391 kts | 200° |
| 2026-05-08 12:05 | 40.42621 | 141.45272 | 37688 ft | 393 kts | 200° |
| 2026-05-08 12:06 | 40.37291 | 141.43585 | 37680 ft | 394 kts | 200° |
| 2026-05-08 12:06 | 40.31954 | 141.41902 | 37668 ft | 394 kts | 200° |
| 2026-05-08 12:07 | 40.26616 | 141.40221 | 37680 ft | 395 kts | 200° |
| 2026-05-08 12:07 | 40.21317 | 141.38554 | 37693 ft | 394 kts | 200° |
| 2026-05-08 12:08 | 40.15983 | 141.36880 | 37690 ft | 394 kts | 200° |
| 2026-05-08 12:08 | 40.10633 | 141.35202 | 37692 ft | 397 kts | 200° |
| 2026-05-08 12:09 | 40.05242 | 141.33513 | 37702 ft | 400 kts | 200° |
| 2026-05-08 12:09 | 39.99855 | 141.31828 | 37703 ft | 402 kts | 200° |
| 2026-05-08 12:10 | 39.94426 | 141.30062 | 37706 ft | 402 kts | 201° |
| 2026-05-08 12:10 | 39.88974 | 141.28262 | 37661 ft | 405 kts | 201° |
| 2026-05-08 12:11 | 39.83521 | 141.26474 | 37716 ft | 404 kts | 201° |
| 2026-05-08 12:11 | 39.78075 | 141.24694 | 37722 ft | 403 kts | 201° |
| 2026-05-08 12:12 | 39.72673 | 141.22933 | 37735 ft | 403 kts | 201° |
| 2026-05-08 12:12 | 39.67229 | 141.21159 | 37740 ft | 403 kts | 201° |
| 2026-05-08 12:13 | 39.61803 | 141.19398 | 37715 ft | 400 kts | 201° |
| 2026-05-08 12:13 | 39.56432 | 141.17655 | 37723 ft | 396 kts | 201° |
| 2026-05-08 12:14 | 39.51097 | 141.15925 | 37745 ft | 395 kts | 201° |
| 2026-05-08 12:14 | 39.45805 | 141.14210 | 37734 ft | 395 kts | 201° |
| 2026-05-08 12:15 | 39.40479 | 141.12519 | 37733 ft | 394 kts | 201° |
| 2026-05-08 12:15 | 39.35143 | 141.10912 | 37733 ft | 393 kts | 201° |
| 2026-05-08 12:16 | 39.29818 | 141.09314 | 37732 ft | 393 kts | 201° |
| 2026-05-08 12:16 | 39.24517 | 141.07716 | 37732 ft | 394 kts | 201° |
| 2026-05-08 12:17 | 39.19175 | 141.06106 | 37714 ft | 394 kts | 201° |
| 2026-05-08 12:17 | 39.13852 | 141.04504 | 37721 ft | 392 kts | 201° |
| 2026-05-08 12:18 | 39.08543 | 141.02908 | 37729 ft | 391 kts | 201° |
| 2026-05-08 12:18 | 39.03280 | 141.01326 | 37733 ft | 391 kts | 201° |
| 2026-05-08 12:19 | 38.97979 | 140.99736 | 37709 ft | 391 kts | 202° |
| 2026-05-08 12:19 | 38.92696 | 140.98156 | 37725 ft | 389 kts | 202° |
| 2026-05-08 12:20 | 38.87434 | 140.96582 | 37725 ft | 388 kts | 202° |
| 2026-05-08 12:20 | 38.82218 | 140.95024 | 37729 ft | 388 kts | 202° |
| 2026-05-08 12:21 | 38.76963 | 140.93458 | 37675 ft | 388 kts | 202° |
| 2026-05-08 12:21 | 38.71709 | 140.91895 | 37717 ft | 387 kts | 202° |
| 2026-05-08 12:22 | 38.66470 | 140.90337 | 37733 ft | 387 kts | 202° |
| 2026-05-08 12:22 | 38.61254 | 140.88788 | 37732 ft | 388 kts | 202° |
| 2026-05-08 12:23 | 38.55998 | 140.87230 | 37732 ft | 388 kts | 202° |
| 2026-05-08 12:23 | 38.50735 | 140.85684 | 37728 ft | 388 kts | 202° |
| 2026-05-08 12:24 | 38.45472 | 140.84143 | 37734 ft | 388 kts | 202° |
| 2026-05-08 12:24 | 38.40247 | 140.82616 | 37727 ft | 388 kts | 202° |
| 2026-05-08 12:25 | 38.34977 | 140.81075 | 37736 ft | 389 kts | 202° |
| 2026-05-08 12:25 | 38.29707 | 140.79538 | 37728 ft | 388 kts | 202° |
| 2026-05-08 12:26 | 38.24441 | 140.78005 | 37727 ft | 388 kts | 202° |
| 2026-05-08 12:26 | 38.19186 | 140.76466 | 37732 ft | 387 kts | 202° |
| 2026-05-08 12:27 | 38.13970 | 140.74939 | 37718 ft | 387 kts | 202° |
| 2026-05-08 12:27 | 38.08735 | 140.73399 | 37718 ft | 386 kts | 202° |
| 2026-05-08 12:28 | 38.03505 | 140.71866 | 37722 ft | 385 kts | 202° |
| 2026-05-08 12:28 | 37.98289 | 140.70343 | 37723 ft | 385 kts | 202° |
| 2026-05-08 12:29 | 37.93077 | 140.68819 | 37734 ft | 385 kts | 202° |
| 2026-05-08 12:29 | 37.87886 | 140.67302 | 37728 ft | 386 kts | 202° |
| 2026-05-08 12:30 | 37.82652 | 140.65784 | 37734 ft | 387 kts | 202° |
| 2026-05-08 12:30 | 37.77407 | 140.64258 | 37737 ft | 387 kts | 202° |
| 2026-05-08 12:31 | 37.72151 | 140.62736 | 37728 ft | 388 kts | 202° |
| 2026-05-08 12:31 | 37.66919 | 140.61234 | 37722 ft | 388 kts | 202° |
| 2026-05-08 12:32 | 37.61652 | 140.59723 | 37731 ft | 388 kts | 202° |
| 2026-05-08 12:32 | 37.56379 | 140.58217 | 37729 ft | 389 kts | 202° |
| 2026-05-08 12:33 | 37.53734 | 140.57455 | 37388 ft | 395 kts | 202° |
| 2026-05-08 12:33 | 37.51031 | 140.56673 | 36826 ft | 396 kts | 202° |
| 2026-05-08 12:33 | 37.48360 | 140.55913 | 35916 ft | 388 kts | 202° |
| 2026-05-08 12:33 | 37.45800 | 140.55193 | 35173 ft | 378 kts | 202° |
| 2026-05-08 12:34 | 37.43264 | 140.54475 | 34395 ft | 370 kts | 202° |
| 2026-05-08 12:34 | 37.40781 | 140.53769 | 33722 ft | 362 kts | 203° |
| 2026-05-08 12:34 | 37.38340 | 140.53071 | 33055 ft | 359 kts | 203° |
| 2026-05-08 12:34 | 37.35881 | 140.52360 | 32469 ft | 371 kts | 203° |
| 2026-05-08 12:35 | 37.33296 | 140.51605 | 31867 ft | 389 kts | 203° |
| 2026-05-08 12:35 | 37.30643 | 140.50851 | 31231 ft | 392 kts | 203° |
| 2026-05-08 12:35 | 37.27993 | 140.50106 | 30578 ft | 389 kts | 203° |
| 2026-05-08 12:35 | 37.25372 | 140.49367 | 30030 ft | 385 kts | 204° |
| 2026-05-08 12:36 | 37.22808 | 140.48632 | 29413 ft | 381 kts | 204° |
| 2026-05-08 12:36 | 37.21064 | 140.48129 | 28980 ft | 378 kts | 204° |
| 2026-05-08 12:37 | 37.19303 | 140.47623 | 28564 ft | 376 kts | 204° |
| 2026-05-08 12:37 | 37.16766 | 140.46899 | 27986 ft | 372 kts | 204° |
| 2026-05-08 12:37 | 37.14253 | 140.46190 | 27394 ft | 368 kts | 203° |
| 2026-05-08 12:38 | 37.11766 | 140.45487 | 26843 ft | 365 kts | 203° |
| 2026-05-08 12:38 | 37.09302 | 140.44791 | 26287 ft | 362 kts | 203° |
| 2026-05-08 12:38 | 37.06886 | 140.44107 | 25699 ft | 360 kts | 203° |
| 2026-05-08 12:38 | 37.04449 | 140.43417 | 25181 ft | 358 kts | 203° |
| 2026-05-08 12:39 | 37.02026 | 140.42733 | 24640 ft | 356 kts | 202° |
| 2026-05-08 12:39 | 36.99611 | 140.42049 | 24083 ft | 356 kts | 202° |
| 2026-05-08 12:39 | 36.97200 | 140.41371 | 23554 ft | 355 kts | 202° |
| 2026-05-08 12:39 | 36.94787 | 140.40692 | 22935 ft | 355 kts | 202° |
| 2026-05-08 12:40 | 36.92385 | 140.40014 | 22323 ft | 353 kts | 202° |
| 2026-05-08 12:40 | 36.90037 | 140.39353 | 21795 ft | 350 kts | 202° |
| 2026-05-08 12:40 | 36.87665 | 140.38694 | 21247 ft | 348 kts | 201° |
| 2026-05-08 12:40 | 36.85309 | 140.38042 | 20676 ft | 346 kts | 201° |
| 2026-05-08 12:41 | 36.82975 | 140.37385 | 20138 ft | 341 kts | 201° |
| 2026-05-08 12:41 | 36.80673 | 140.36745 | 19674 ft | 337 kts | 201° |
| 2026-05-08 12:41 | 36.78388 | 140.36115 | 19171 ft | 336 kts | 201° |
| 2026-05-08 12:41 | 36.76105 | 140.35482 | 18663 ft | 335 kts | 201° |
| 2026-05-08 12:42 | 36.73824 | 140.34874 | 18140 ft | 336 kts | 199° |
| 2026-05-08 12:42 | 36.71512 | 140.34379 | 17579 ft | 338 kts | 197° |
| 2026-05-08 12:42 | 36.69225 | 140.33930 | 17040 ft | 336 kts | 196° |
| 2026-05-08 12:42 | 36.66922 | 140.33472 | 16507 ft | 333 kts | 196° |
| 2026-05-08 12:43 | 36.64649 | 140.33013 | 16108 ft | 330 kts | 196° |
| 2026-05-08 12:43 | 36.62340 | 140.32542 | 15976 ft | 339 kts | 196° |
| 2026-05-08 12:43 | 36.60012 | 140.32075 | 15685 ft | 337 kts | 195° |
| 2026-05-08 12:43 | 36.57719 | 140.31618 | 15438 ft | 332 kts | 195° |
| 2026-05-08 12:44 | 36.55460 | 140.31165 | 15195 ft | 327 kts | 195° |
| 2026-05-08 12:44 | 36.53239 | 140.30718 | 14957 ft | 326 kts | 195° |
| 2026-05-08 12:44 | 36.51004 | 140.30267 | 14722 ft | 326 kts | 195° |
| 2026-05-08 12:44 | 36.48765 | 140.29817 | 14489 ft | 326 kts | 195° |
| 2026-05-08 12:45 | 36.46531 | 140.29369 | 14245 ft | 326 kts | 195° |
| 2026-05-08 12:45 | 36.44326 | 140.28840 | 13969 ft | 317 kts | 202° |
| 2026-05-08 12:45 | 36.42390 | 140.27530 | 13770 ft | 320 kts | 221° |
| 2026-05-08 12:45 | 36.40837 | 140.25531 | 13552 ft | 325 kts | 232° |
| 2026-05-08 12:46 | 36.39663 | 140.23148 | 13274 ft | 325 kts | 248° |
| 2026-05-08 12:46 | 36.39077 | 140.20434 | 13039 ft | 325 kts | 255° |
| 2026-05-08 12:46 | 36.38592 | 140.17704 | 12806 ft | 323 kts | 255° |
| 2026-05-08 12:46 | 36.38102 | 140.15030 | 12551 ft | 320 kts | 255° |
| 2026-05-08 12:47 | 36.37594 | 140.12361 | 12322 ft | 316 kts | 254° |
| 2026-05-08 12:47 | 36.37079 | 140.09713 | 12142 ft | 316 kts | 253° |
| 2026-05-08 12:47 | 36.36561 | 140.07072 | 11888 ft | 315 kts | 253° |
| 2026-05-08 12:47 | 36.35919 | 140.04529 | 11639 ft | 305 kts | 241° |
| 2026-05-08 12:48 | 36.34620 | 140.02462 | 11389 ft | 306 kts | 222° |
| 2026-05-08 12:48 | 36.32839 | 140.01067 | 11118 ft | 303 kts | 207° |
| 2026-05-08 12:48 | 36.30846 | 140.00264 | 10895 ft | 300 kts | 196° |
| 2026-05-08 12:48 | 36.28777 | 140.00177 | 10653 ft | 297 kts | 176° |
| 2026-05-08 12:49 | 36.26769 | 140.00664 | 10458 ft | 291 kts | 174° |
| 2026-05-08 12:49 | 36.24832 | 140.01159 | 10241 ft | 285 kts | 174° |
| 2026-05-08 12:49 | 36.22903 | 140.01652 | 10030 ft | 280 kts | 174° |
| 2026-05-08 12:49 | 36.21014 | 140.02128 | 9825 ft | 274 kts | 174° |
| 2026-05-08 12:50 | 36.19157 | 140.02591 | 9629 ft | 271 kts | 174° |
| 2026-05-08 12:50 | 36.17318 | 140.03044 | 9411 ft | 269 kts | 174° |
| 2026-05-08 12:50 | 36.15478 | 140.03494 | 9221 ft | 270 kts | 174° |
| 2026-05-08 12:50 | 36.13637 | 140.03941 | 9011 ft | 270 kts | 174° |
| 2026-05-08 12:51 | 36.11794 | 140.04388 | 8813 ft | 270 kts | 174° |
| 2026-05-08 12:53 | 36.07267 | 140.05479 | 8325 ft | 270 kts | 174° |